Time;durP1;ratioP1;P1;durP2;ratioP2;P2;SDS_P1;SDS_P2;PMS_P1;PMS_P2;Temp;Humidity;BMP_temperature;BMP_pressure;BME280_temperature;BME280_humidity;BME280_pressure;Samples;Min_cycle;Max_cycle;Signal;HPM_P1;HPM_P2
2022/09/23 00:00:03;;;;;;;13.60;12.70;;;;;;;7.75;85.97;92999.25;5130867;28;20231;-75
2022/09/23 00:02:29;;;;;;;13.40;12.50;;;;;;;7.80;86.75;93004.47;5130396;28;20206;-75
2022/09/23 00:04:54;;;;;;;12.50;11.67;;;;;;;7.89;85.82;93010.75;5129811;28;20207;-76
2022/09/23 00:07:20;;;;;;;12.93;12.03;;;;;;;7.86;85.41;92998.28;5131701;28;21029;-76
2022/09/23 00:09:45;;;;;;;12.17;11.37;;;;;;;7.80;86.06;92998.50;5129871;28;20212;-76
2022/09/23 00:12:11;;;;;;;12.70;11.93;;;;;;;7.56;86.47;92992.91;5131052;28;20250;-76
2022/09/23 00:14:37;;;;;;;12.20;11.40;;;;;;;7.50;86.24;92996.50;5129994;28;20279;-75
2022/09/23 00:17:03;;;;;;;12.13;11.40;;;;;;;7.37;87.23;92991.75;5131127;28;20179;-76
2022/09/23 00:19:28;;;;;;;11.90;11.20;;;;;;;7.36;87.32;92987.56;5130942;28;20219;-76
2022/09/23 00:21:55;;;;;;;11.97;11.33;;;;;;;7.38;87.15;92995.91;5130834;28;20720;-76
2022/09/23 00:24:21;;;;;;;11.83;11.13;;;;;;;7.32;87.39;92983.91;5130257;28;20246;-76
2022/09/23 00:26:46;;;;;;;12.73;11.93;;;;;;;7.00;88.02;92953.81;5130988;28;20661;-76
2022/09/23 00:29:12;;;;;;;12.20;11.47;;;;;;;7.15;88.15;92980.66;5129393;28;20760;-75
2022/09/23 00:31:37;;;;;;;11.67;10.87;;;;;;;6.97;88.31;92968.06;5131147;28;20245;-76
2022/09/23 00:34:02;;;;;;;12.43;11.63;;;;;;;7.10;88.60;92993.59;5130343;28;20246;-76
2022/09/23 00:36:29;;;;;;;11.30;10.60;;;;;;;7.21;87.78;92987.47;5130970;28;20196;-75
2022/09/23 00:38:54;;;;;;;11.87;11.07;;;;;;;7.09;87.82;92986.84;5129262;28;20229;-75
2022/09/23 00:41:20;;;;;;;13.30;12.47;;;;;;;7.17;88.18;92991.59;5131056;28;20239;-76
2022/09/23 00:43:50;;;;;;;12.57;11.80;;;;;;;7.17;88.51;92986.41;5129528;28;20249;-76
2022/09/23 00:46:24;;;;;;;11.93;11.13;;;;;;;7.10;89.38;92985.81;5130372;28;20188;-76
2022/09/23 00:48:53;;;;;;;12.37;11.57;;;;;;;7.21;89.01;92987.47;5128790;28;20231;-76
2022/09/23 00:51:23;;;;;;;11.47;10.77;;;;;;;7.24;88.56;92981.78;5146496;27;20216;-76
2022/09/23 00:53:51;;;;;;;11.80;11.10;;;;;;;7.26;88.50;92984.91;5129742;28;20628;-76
2022/09/23 00:56:20;;;;;;;12.03;11.23;;;;;;;7.03;88.92;92981.88;5128543;28;20176;-76
2022/09/23 00:58:47;;;;;;;10.60;10.00;;;;;;;7.00;89.05;92980.56;5130429;28;20283;-75
2022/09/23 01:01:13;;;;;;;11.57;10.87;;;;;;;7.03;88.71;92989.66;5129452;28;20191;-76
2022/09/23 01:03:41;;;;;;;11.07;10.47;;;;;;;6.68;89.16;92946.00;5131027;28;20174;-76
2022/09/23 01:06:07;;;;;;;11.03;10.33;;;;;;;6.78;88.73;92966.06;5130286;28;20565;-76
2022/09/23 01:08:33;;;;;;;11.07;10.43;;;;;;;6.73;88.70;92966.81;5129422;28;20274;-76
2022/09/23 01:11:05;;;;;;;10.77;10.17;;;;;;;6.89;88.93;92991.09;5130241;28;20235;-76
2022/09/23 01:13:41;;;;;;;10.47;9.87;;;;;;;6.86;89.34;92987.19;5130351;28;20187;-76
2022/09/23 01:16:23;;;;;;;12.40;11.73;;;;;;;6.73;89.58;92984.19;5126364;28;20218;-76
2022/09/23 01:18:53;;;;;;;11.97;11.37;;;;;;;6.39;89.91;92947.31;5128753;28;20310;-76
2022/09/23 01:21:19;;;;;;;11.33;10.63;;;;;;;6.71;89.58;92983.66;5130605;28;20179;-76
2022/09/23 01:23:47;;;;;;;12.53;11.83;;;;;;;6.43;91.00;92985.47;5128464;28;20319;-75
2022/09/23 01:26:21;;;;;;;10.20;9.67;;;;;;;6.53;90.38;92989.97;5130098;28;20175;-76
2022/09/23 01:29:11;;;;;;;11.67;11.07;;;;;;;6.62;90.58;92988.50;5128820;28;20226;-75
2022/09/23 01:31:47;;;;;;;11.63;11.03;;;;;;;6.51;90.75;92984.25;5128170;28;20274;-76
2022/09/23 01:34:23;;;;;;;12.10;11.43;;;;;;;6.28;91.74;92992.28;5127978;28;20272;-76
2022/09/23 01:36:55;;;;;;;11.50;10.90;;;;;;;6.51;91.26;92987.63;5128535;28;20259;-75
2022/09/23 01:39:53;;;;;;;11.53;10.73;;;;;;;6.47;90.86;92981.34;5128030;28;20239;-76
2022/09/23 01:42:26;;;;;;;10.70;10.10;;;;;;;6.52;91.62;92996.19;5129739;28;20281;-75
2022/09/23 01:45:00;;;;;;;10.33;9.73;;;;;;;6.38;91.89;92997.59;5127152;28;20321;-76
2022/09/23 01:47:40;;;;;;;11.70;11.10;;;;;;;6.36;92.24;92997.84;5128207;28;20176;-76
2022/09/23 01:53:05;;;;;;;11.70;11.00;;;;;;;6.42;91.20;92986.50;5128189;28;20262;-76
2022/09/23 01:55:35;;;;;;;12.53;11.73;;;;;;;6.34;92.70;92996.50;5128490;28;20245;-76
2022/09/23 01:58:13;;;;;;;11.97;11.27;;;;;;;6.31;93.29;93002.19;5129374;28;20188;-76
2022/09/23 02:00:46;;;;;;;11.97;11.17;;;;;;;6.24;93.91;92996.41;5126371;28;21180;-76
2022/09/23 02:03:25;;;;;;;13.33;12.43;;;;;;;6.16;94.67;92989.81;5129381;28;20246;-76
2022/09/23 02:06:06;;;;;;;13.90;12.90;;;;;;;6.26;94.67;92991.75;5127111;28;20211;-76
2022/09/23 02:08:36;;;;;;;13.53;12.63;;;;;;;6.33;94.33;92992.34;5129104;28;20210;-76
2022/09/23 02:11:07;;;;;;;13.17;12.30;;;;;;;6.26;94.10;92991.75;5126993;28;20207;-75
2022/09/23 02:13:35;;;;;;;14.23;13.03;;;;;;;6.20;95.11;92990.13;5128578;28;20179;-76
2022/09/23 02:16:07;;;;;;;13.10;12.23;;;;;;;6.04;95.29;92973.63;5128385;28;20180;-76
2022/09/23 02:18:44;;;;;;;12.57;11.87;;;;;;;6.21;94.53;92982.09;5129894;28;20195;-76
2022/09/23 02:21:13;;;;;;;13.53;12.27;;;;;;;6.32;94.07;92972.63;5132181;28;20210;-76
2022/09/23 02:23:43;;;;;;;14.07;12.77;;;;;;;6.18;93.51;92971.44;5131121;28;20193;-76
2022/09/23 02:26:39;;;;;;;13.63;12.57;;;;;;;6.41;93.12;92989.34;5133184;28;20194;-75
2022/09/23 02:29:20;;;;;;;14.73;13.40;;;;;;;6.35;93.62;92982.53;5132099;28;20318;-75
2022/09/23 02:32:03;;;;;;;13.93;12.67;;;;;;;6.31;94.79;92981.44;5131347;28;20207;-76
2022/09/23 02:35:05;;;;;;;12.97;11.93;;;;;;;6.42;93.36;92976.13;5132213;28;20886;-76
2022/09/23 02:38:09;;;;;;;12.63;11.63;;;;;;;6.51;93.58;92985.03;5102515;28;20245;-76
2022/09/23 02:40:55;;;;;;;12.80;11.90;;;;;;;6.25;93.94;92972.84;5133181;28;20221;-75
2022/09/23 02:43:34;;;;;;;12.00;11.20;;;;;;;6.29;94.13;92989.47;5131958;28;20183;-76
2022/09/23 02:46:01;;;;;;;11.60;10.80;;;;;;;6.29;94.95;92986.88;5132746;28;20207;-76
2022/09/23 02:48:33;;;;;;;12.87;11.97;;;;;;;6.13;94.37;92976.59;5131417;28;20187;-75
2022/09/23 02:51:01;;;;;;;12.53;11.53;;;;;;;6.18;94.62;92990.38;5132736;28;20211;-76
2022/09/23 02:53:27;;;;;;;12.60;11.80;;;;;;;6.05;94.54;92980.38;5132215;28;20179;-76
2022/09/23 02:55:52;;;;;;;11.23;10.53;;;;;;;6.23;94.45;92995.63;5132861;28;20212;-75
2022/09/23 02:58:18;;;;;;;10.80;10.20;;;;;;;6.15;94.28;93008.22;5129346;28;20184;-76
2022/09/23 03:01:21;;;;;;;12.43;11.77;;;;;;;6.16;94.22;93002.00;5132508;28;20212;-76
2022/09/23 03:04:14;;;;;;;10.37;9.77;;;;;;;6.19;93.22;92998.94;5130592;28;20815;-76
2022/09/23 03:06:54;;;;;;;10.57;10.03;;;;;;;6.10;93.26;92990.03;5131656;28;20247;-76
2022/09/23 03:09:33;;;;;;;11.93;11.23;;;;;;;6.03;92.91;93003.16;5129674;28;20219;-76
2022/09/23 03:12:11;;;;;;;11.47;10.77;;;;;;;6.04;93.85;92998.75;5131355;28;20252;-75
2022/09/23 03:14:43;;;;;;;11.00;10.20;;;;;;;6.00;94.21;93002.84;5129403;28;20238;-76
2022/09/23 03:17:33;;;;;;;12.23;11.53;;;;;;;5.90;94.67;92993.16;5129824;28;20224;-76
2022/09/23 03:20:11;;;;;;;11.73;11.13;;;;;;;6.01;94.03;92994.03;5131552;28;20254;-76
2022/09/23 03:22:44;;;;;;;10.90;10.30;;;;;;;5.96;93.98;92988.81;5129739;28;20191;-76
2022/09/23 03:25:16;;;;;;;10.60;10.03;;;;;;;5.95;94.39;92982.06;5130196;28;20227;-76
2022/09/23 03:27:44;;;;;;;11.20;10.43;;;;;;;5.88;95.11;92987.41;5130314;28;20203;-76
2022/09/23 03:30:11;;;;;;;11.00;10.23;;;;;;;6.08;93.92;92998.03;5128772;28;20286;-76
2022/09/23 03:32:40;;;;;;;10.17;9.57;;;;;;;6.08;92.40;92998.03;5131895;27;20183;-76
2022/09/23 03:35:06;;;;;;;11.07;10.47;;;;;;;6.00;92.56;92990.69;5131531;28;20226;-76
2022/09/23 03:37:38;;;;;;;9.83;9.33;;;;;;;5.78;94.08;92982.09;5130797;28;20250;-75
2022/09/23 03:40:15;;;;;;;10.63;10.13;;;;;;;5.82;93.84;92985.78;5131348;27;20230;-76
2022/09/23 03:42:41;;;;;;;11.03;10.47;;;;;;;5.87;92.78;92990.25;5129909;28;20237;-76
2022/09/23 03:45:12;;;;;;;10.87;10.27;;;;;;;5.85;92.99;92989.72;5130896;27;20780;-76
2022/09/23 03:47:38;;;;;;;10.87;10.07;;;;;;;5.83;93.88;92989.16;5131845;28;20195;-76
2022/09/23 03:50:04;;;;;;;11.63;11.03;;;;;;;5.88;94.55;92997.00;5130297;28;20261;-76
2022/09/23 03:52:29;;;;;;;12.93;11.83;;;;;;;5.83;95.09;92981.41;5132413;28;20259;-76
2022/09/23 03:54:55;;;;;;;10.20;9.63;;;;;;;5.86;95.65;93001.63;5130334;28;20207;-75
2022/09/23 03:57:21;;;;;;;12.07;11.27;;;;;;;5.89;95.63;92989.00;5132474;28;20270;-76
2022/09/23 03:59:50;;;;;;;12.93;12.03;;;;;;;5.97;95.82;93001.53;5130632;27;20864;-76
2022/09/23 04:02:16;;;;;;;14.17;13.20;;;;;;;5.97;95.59;93005.94;5131649;28;20274;-76
2022/09/23 04:04:42;;;;;;;13.30;12.33;;;;;;;5.83;96.29;93005.50;5130447;27;20266;-76
2022/09/23 04:07:09;;;;;;;12.37;11.57;;;;;;;6.00;95.64;93006.25;5130264;28;20187;-76
2022/09/23 04:09:35;;;;;;;13.03;12.13;;;;;;;6.03;94.55;93005.75;5131007;27;20234;-76
2022/09/23 04:12:02;;;;;;;11.70;10.90;;;;;;;5.88;93.68;93002.94;5128988;28;20187;-76
2022/09/23 04:14:28;;;;;;;12.17;11.40;;;;;;;5.90;93.23;92985.38;5130409;28;20283;-75
2022/09/23 04:16:53;;;;;;;11.77;10.83;;;;;;;5.76;94.03;93012.63;5131996;28;20183;-76
2022/09/23 04:19:18;;;;;;;12.60;11.60;;;;;;;5.65;95.13;92997.19;5130995;28;20226;-75
2022/09/23 04:21:44;;;;;;;12.07;11.37;;;;;;;5.61;94.97;92994.28;5128199;28;20258;-75
2022/09/23 04:24:11;;;;;;;12.67;11.80;;;;;;;5.78;94.92;93017.56;5129689;27;20227;-76
2022/09/23 04:26:38;;;;;;;13.73;12.73;;;;;;;5.68;95.31;93009.66;5131526;28;20183;-75
2022/09/23 04:29:04;;;;;;;11.37;10.67;;;;;;;5.95;93.58;93024.31;5128600;28;20227;-76
2022/09/23 04:31:31;;;;;;;11.03;10.03;;;;;;;5.80;94.12;93025.88;5129810;28;20244;-76
2022/09/23 04:33:57;;;;;;;11.97;11.37;;;;;;;5.74;94.45;93016.47;5129524;28;20227;-76
2022/09/23 04:36:22;;;;;;;13.83;12.53;;;;;;;5.72;96.91;93028.88;5129338;28;20711;-75
2022/09/23 04:38:48;;;;;;;14.70;13.40;;;;;;;5.64;99.28;93013.75;5131043;28;20230;-75
2022/09/23 04:41:15;;;;;;;14.53;13.40;;;;;;;5.87;99.36;93027.31;5130405;28;20183;-76
2022/09/23 04:43:41;;;;;;;15.60;14.33;;;;;;;6.14;98.02;93041.13;5128763;28;20191;-76
2022/09/23 04:46:08;;;;;;;17.83;16.20;;;;;;;6.19;97.52;93045.59;5130370;28;20179;-76
2022/09/23 04:48:35;;;;;;;15.60;14.00;;;;;;;6.30;95.97;93042.88;5128992;28;20195;-75
2022/09/23 04:51:05;;;;;;;14.37;13.07;;;;;;;6.36;94.81;93034.16;5130854;28;20207;-76
2022/09/23 04:53:31;;;;;;;19.47;14.87;;;;;;;6.39;95.41;93053.63;5129613;27;20192;-76
2022/09/23 04:56:05;;;;;;;15.70;13.43;;;;;;;6.21;95.75;93053.94;5130517;28;20211;-76
2022/09/23 04:58:33;;;;;;;15.30;14.03;;;;;;;5.99;98.22;93034.97;5129132;28;20201;-75
2022/09/23 05:01:07;;;;;;;15.90;14.37;;;;;;;6.26;97.06;93061.75;5130517;28;20191;-75
2022/09/23 05:03:34;;;;;;;16.93;15.23;;;;;;;6.31;96.51;93049.66;5128867;28;20186;-76
2022/09/23 05:05:59;;;;;;;17.43;16.03;;;;;;;6.25;96.29;93055.00;5128758;28;20211;-75
2022/09/23 05:08:25;;;;;;;17.17;15.43;;;;;;;6.56;96.01;93056.91;5130075;28;20178;-75
2022/09/23 05:10:56;;;;;;;17.50;15.53;;;;;;;6.63;95.64;93061.94;5130497;28;20337;-75
2022/09/23 05:13:21;;;;;;;17.93;16.23;;;;;;;6.75;95.32;93054.78;5129227;28;20197;-76
2022/09/23 05:15:46;;;;;;;17.73;16.13;;;;;;;6.33;97.26;93039.03;5128875;28;20211;-76
2022/09/23 05:18:12;;;;;;;15.53;14.13;;;;;;;6.67;97.05;93052.63;5129981;28;20199;-75
2022/09/23 05:20:38;;;;;;;17.00;15.60;;;;;;;6.65;96.98;93060.66;5130010;28;20291;-76
2022/09/23 05:23:03;;;;;;;18.53;17.03;;;;;;;6.71;96.46;93059.66;5130296;28;20189;-75
2022/09/23 05:25:28;;;;;;;15.87;14.37;;;;;;;6.73;95.90;93052.44;5127216;28;20242;-75
2022/09/23 05:27:54;;;;;;;15.83;14.43;;;;;;;6.72;96.44;93057.88;5130743;28;20183;-75
2022/09/23 05:30:19;;;;;;;16.57;15.07;;;;;;;6.74;96.31;93045.44;5128812;27;20226;-75
2022/09/23 05:32:44;;;;;;;16.03;14.77;;;;;;;6.58;95.56;93037.47;5128862;28;20168;-75
2022/09/23 05:35:10;;;;;;;15.47;13.97;;;;;;;6.70;96.87;93058.13;5128552;28;20292;-75
2022/09/23 05:37:37;;;;;;;15.60;14.27;;;;;;;6.83;95.87;93065.53;5129745;28;20199;-76
2022/09/23 05:40:03;;;;;;;16.67;15.27;;;;;;;6.88;95.65;93070.75;5130056;28;20242;-76
2022/09/23 05:42:28;;;;;;;15.00;13.63;;;;;;;6.97;95.82;93065.91;5130201;28;20191;-76
2022/09/23 05:44:55;;;;;;;15.50;14.07;;;;;;;7.00;94.36;93065.41;5128181;28;20256;-75
2022/09/23 05:47:20;;;;;;;14.63;13.33;;;;;;;7.16;93.66;93061.94;5127836;28;20175;-75
2022/09/23 05:49:46;;;;;;;15.00;13.90;;;;;;;7.36;92.82;93064.72;5129704;28;20222;-75
2022/09/23 05:52:11;;;;;;;14.83;13.63;;;;;;;7.20;93.16;93060.41;5129917;28;20251;-75
2022/09/23 05:54:37;;;;;;;14.57;13.33;;;;;;;7.11;92.94;93056.69;5128705;28;20231;-75
2022/09/23 05:57:02;;;;;;;15.13;13.80;;;;;;;7.39;91.92;93066.81;5129318;28;20266;-75
2022/09/23 05:59:28;;;;;;;14.53;13.23;;;;;;;7.55;90.73;93058.09;5129163;28;20241;-75
2022/09/23 06:01:54;;;;;;;14.77;13.47;;;;;;;7.60;90.40;93058.13;5128878;28;20187;-75
2022/09/23 06:04:19;;;;;;;15.13;13.90;;;;;;;7.47;92.14;93064.53;5129010;28;20223;-75
2022/09/23 06:06:45;;;;;;;14.93;13.70;;;;;;;7.58;89.79;93042.78;5129095;28;20199;-75
2022/09/23 06:09:12;;;;;;;15.60;14.00;;;;;;;7.94;89.43;93062.00;5128399;28;20223;-75
2022/09/23 06:11:39;;;;;;;15.00;13.80;;;;;;;7.87;88.40;93064.06;5129326;28;20211;-75
2022/09/23 06:14:04;;;;;;;14.50;13.00;;;;;;;8.08;87.50;93048.31;5126975;28;20244;-75
2022/09/23 06:16:32;;;;;;;16.00;14.60;;;;;;;7.60;88.44;93011.38;5127687;28;20191;-74
2022/09/23 06:19:04;;;;;;;14.43;13.30;;;;;;;8.09;87.73;93057.66;5128667;28;20238;-75
2022/09/23 06:21:30;;;;;;;14.37;13.23;;;;;;;8.12;86.56;93066.81;5128934;28;20775;-76
2022/09/23 06:24:01;;;;;;;15.20;13.97;;;;;;;8.27;86.70;93053.09;5128109;28;20223;-76
2022/09/23 06:26:29;;;;;;;14.00;12.80;;;;;;;8.45;84.33;93058.66;5128274;28;20211;-75
2022/09/23 06:28:55;;;;;;;12.90;12.00;;;;;;;8.43;83.80;93055.53;5128103;28;20237;-76
2022/09/23 06:31:20;;;;;;;13.73;12.80;;;;;;;8.58;83.29;93039.19;5128153;28;20242;-75
2022/09/23 06:33:45;;;;;;;13.60;12.57;;;;;;;8.74;82.27;93059.03;5128392;28;20241;-75
2022/09/23 06:36:12;;;;;;;13.73;12.67;;;;;;;9.05;81.18;93053.63;5128413;28;20183;-75
2022/09/23 06:38:39;;;;;;;13.17;12.07;;;;;;;9.14;80.42;93056.50;5128608;28;20198;-75
2022/09/23 06:41:06;;;;;;;12.53;11.63;;;;;;;9.03;79.32;93044.50;5129217;28;20183;-76
2022/09/23 06:43:31;;;;;;;12.70;11.80;;;;;;;9.04;79.77;93056.50;5125454;28;20218;-75
2022/09/23 06:45:59;;;;;;;12.10;11.23;;;;;;;9.08;79.73;93060.16;5127853;28;20191;-76
2022/09/23 06:48:26;;;;;;;12.87;12.07;;;;;;;8.93;80.05;93049.72;5127644;28;20190;-75
2022/09/23 06:50:52;;;;;;;11.80;11.10;;;;;;;9.19;79.43;93069.53;5128546;28;20219;-75
2022/09/23 06:53:22;;;;;;;13.30;12.40;;;;;;;9.32;78.81;93066.44;5128882;28;20200;-75
2022/09/23 06:55:48;;;;;;;12.37;11.57;;;;;;;9.28;79.35;93081.81;5127653;28;20278;-75
2022/09/23 06:58:14;;;;;;;13.77;12.77;;;;;;;9.18;79.69;93065.38;5126232;28;20214;-75
2022/09/23 07:00:39;;;;;;;12.37;11.60;;;;;;;9.17;78.69;93061.19;5127907;28;20238;-76
2022/09/23 07:03:07;;;;;;;11.83;11.13;;;;;;;9.19;79.01;93078.16;5126334;28;20203;-75
2022/09/23 07:05:32;;;;;;;12.53;11.63;;;;;;;9.59;78.73;93090.41;5131305;28;20238;-75
2022/09/23 07:07:58;;;;;;;12.87;11.87;;;;;;;9.82;77.30;93092.53;5131953;28;20180;-75
2022/09/23 07:10:23;;;;;;;14.03;13.17;;;;;;;9.42;78.96;93105.53;5132168;28;20233;-76
2022/09/23 07:12:49;;;;;;;13.53;12.53;;;;;;;9.39;78.19;93091.19;5131206;28;20192;-76
2022/09/23 07:15:15;;;;;;;13.33;12.53;;;;;;;9.50;78.15;93089.38;5132423;28;20211;-76
2022/09/23 07:17:41;;;;;;;12.57;11.77;;;;;;;9.81;77.36;93101.38;5132716;28;20203;-75
2022/09/23 07:20:08;;;;;;;12.70;11.90;;;;;;;9.99;76.81;93093.03;5130623;28;20240;-75
2022/09/23 07:22:34;;;;;;;12.27;11.47;;;;;;;10.09;77.22;93092.25;5131315;28;20207;-75
2022/09/23 07:25:00;;;;;;;12.33;11.43;;;;;;;9.86;76.53;93077.91;5129357;28;20234;-76
2022/09/23 07:27:26;;;;;;;12.70;11.90;;;;;;;10.01;76.27;93088.31;5131583;28;20224;-76
2022/09/23 07:29:52;;;;;;;11.57;10.87;;;;;;;10.22;74.73;93092.50;5131710;28;20242;-76
2022/09/23 07:32:20;;;;;;;11.80;11.10;;;;;;;10.38;74.11;93098.47;5130030;28;20471;-75
2022/09/23 07:34:46;;;;;;;12.50;11.80;;;;;;;10.26;74.26;93106.56;5132137;28;20850;-75
2022/09/23 07:37:16;;;;;;;11.03;10.13;;;;;;;9.96;74.13;93041.38;5131560;28;20267;-75
2022/09/23 07:39:42;;;;;;;11.83;11.13;;;;;;;10.43;73.65;93106.31;5131349;27;20231;-75
2022/09/23 07:42:08;;;;;;;11.70;11.00;;;;;;;10.43;75.16;93114.13;5129880;28;20243;-75
2022/09/23 07:44:33;;;;;;;11.50;10.80;;;;;;;10.40;75.36;93109.41;5131912;28;20253;-75
2022/09/23 07:46:59;;;;;;;12.20;11.40;;;;;;;10.51;75.93;93105.75;5128846;28;20239;-75
2022/09/23 07:49:26;;;;;;;12.23;11.43;;;;;;;10.89;74.20;93110.31;5131119;28;20238;-75
2022/09/23 07:51:52;;;;;;;12.53;11.63;;;;;;;10.69;73.64;93118.22;5131134;28;20226;-75
2022/09/23 07:54:18;;;;;;;11.37;10.67;;;;;;;10.62;72.46;93113.28;5129143;28;20211;-76
2022/09/23 07:56:44;;;;;;;11.87;11.07;;;;;;;10.36;74.79;93103.97;5130315;28;20191;-75
2022/09/23 07:59:14;;;;;;;12.10;11.23;;;;;;;10.39;75.13;93113.88;5130293;28;20226;-76
2022/09/23 08:01:53;;;;;;;12.10;11.37;;;;;;;10.55;74.28;93112.00;5130928;28;20199;-74
2022/09/23 08:04:22;;;;;;;12.00;10.97;;;;;;;10.69;72.44;93118.22;5126727;28;20306;-75
2022/09/23 08:06:54;;;;;;;11.27;10.40;;;;;;;10.53;72.65;93116.69;5128425;28;20194;-75
2022/09/23 08:09:22;;;;;;;11.60;10.90;;;;;;;10.39;73.35;93118.31;5127887;28;20223;-76
2022/09/23 08:11:49;;;;;;;11.80;11.17;;;;;;;10.31;73.63;93111.78;5131650;28;20215;-75
2022/09/23 08:14:16;;;;;;;12.37;11.47;;;;;;;10.14;74.70;93113.13;5128665;28;20227;-75
2022/09/23 08:16:44;;;;;;;12.60;11.70;;;;;;;10.31;75.17;93114.41;5131184;28;20179;-75
2022/09/23 08:19:10;;;;;;;13.00;12.03;;;;;;;10.67;72.99;93102.84;5129839;27;20223;-75
2022/09/23 08:21:38;;;;;;;11.23;10.43;;;;;;;11.05;72.30;93117.81;5130689;28;20203;-75
2022/09/23 08:24:07;;;;;;;11.10;10.40;;;;;;;11.14;71.11;93120.66;5127823;28;20211;-75
2022/09/23 08:26:33;;;;;;;11.83;11.07;;;;;;;10.83;71.75;93119.22;5131124;28;20188;-75
2022/09/23 08:28:59;;;;;;;11.20;10.47;;;;;;;10.47;71.90;93121.16;5129978;28;20243;-75
2022/09/23 08:31:24;;;;;;;11.47;10.87;;;;;;;10.58;73.59;93103.63;5129988;28;20207;-75
2022/09/23 08:33:57;;;;;;;11.57;10.97;;;;;;;10.73;71.88;93120.03;5129288;28;20242;-76
2022/09/23 08:36:24;;;;;;;11.60;10.80;;;;;;;10.80;71.77;93111.94;5130264;28;20176;-75
2022/09/23 08:38:50;;;;;;;10.50;9.90;;;;;;;11.05;70.99;93104.75;5128786;27;20227;-75
2022/09/23 08:41:42;;;;;;;10.93;10.30;;;;;;;10.90;70.07;93110.06;5130479;28;20242;-76
2022/09/23 08:44:26;;;;;;;10.77;10.17;;;;;;;11.00;69.10;93112.59;5129995;28;20259;-75
2022/09/23 08:47:11;;;;;;;11.27;10.67;;;;;;;11.32;68.03;93105.13;5130436;28;20274;-75
2022/09/23 08:50:05;;;;;;;10.67;10.13;;;;;;;11.30;67.45;93115.06;5129238;28;20231;-75
2022/09/23 08:52:38;;;;;;;11.50;10.63;;;;;;;11.32;68.19;93112.97;5125633;28;20191;-76
2022/09/23 08:55:04;;;;;;;11.60;10.93;;;;;;;11.47;67.86;93108.72;5128914;28;20220;-75
2022/09/23 08:57:52;;;;;;;10.37;9.77;;;;;;;11.47;65.34;93119.19;5131030;28;20194;-76
2022/09/23 09:00:22;;;;;;;11.00;10.30;;;;;;;11.38;65.68;93115.56;5130245;28;20247;-76
2022/09/23 09:02:48;;;;;;;11.43;10.83;;;;;;;11.63;67.15;93112.81;5128603;28;20198;-76
2022/09/23 09:05:22;;;;;;;11.47;10.77;;;;;;;11.66;67.46;93114.91;5128584;28;20243;-75
2022/09/23 09:07:48;;;;;;;11.07;10.43;;;;;;;11.55;67.58;93100.31;5128479;28;20176;-75
2022/09/23 09:10:19;;;;;;;10.87;10.27;;;;;;;11.73;67.26;93110.91;5130199;28;20248;-75
2022/09/23 09:12:52;;;;;;;10.80;10.27;;;;;;;11.30;67.10;93122.13;5131528;27;20184;-75
2022/09/23 09:15:22;;;;;;;11.00;10.30;;;;;;;11.46;66.44;93112.34;5129126;28;20223;-75
2022/09/23 09:18:02;;;;;;;10.33;9.73;;;;;;;11.69;65.72;93109.88;5128544;28;20180;-75
2022/09/23 09:20:37;;;;;;;10.67;10.07;;;;;;;11.74;64.76;93107.25;5127574;27;20231;-76
2022/09/23 09:23:16;;;;;;;11.57;10.60;;;;;;;11.96;63.52;93101.56;5129412;28;20244;-75
2022/09/23 09:25:43;;;;;;;9.80;9.33;;;;;;;11.84;63.92;93104.56;5129504;28;20227;-75
2022/09/23 09:28:20;;;;;;;10.50;10.00;;;;;;;11.97;62.98;93124.09;5127651;28;20191;-76
2022/09/23 09:30:53;;;;;;;9.73;9.17;;;;;;;12.06;62.59;93114.59;5128003;28;20219;-75
2022/09/23 09:33:23;;;;;;;11.10;10.47;;;;;;;11.90;63.34;93110.53;5128361;28;20238;-76
2022/09/23 09:36:07;;;;;;;8.70;8.30;;;;;;;12.04;63.43;93114.06;5129934;28;20227;-75
2022/09/23 09:38:34;;;;;;;9.87;9.33;;;;;;;12.04;61.68;93104.41;5127410;28;20180;-75
2022/09/23 09:41:11;;;;;;;10.30;9.80;;;;;;;12.19;62.77;93106.06;5128636;28;20180;-75
2022/09/23 09:43:39;;;;;;;10.40;9.90;;;;;;;12.35;62.57;93110.13;5128851;28;20192;-76
2022/09/23 09:46:13;;;;;;;11.33;10.73;;;;;;;12.21;61.23;93120.47;5129354;28;20262;-75
2022/09/23 09:48:55;;;;;;;10.20;9.70;;;;;;;12.40;59.93;93123.19;5126156;28;20187;-75
2022/09/23 09:51:26;;;;;;;10.33;9.83;;;;;;;12.42;59.46;93113.97;5127592;28;20275;-75
2022/09/23 09:53:53;;;;;;;11.20;9.40;;;;;;;12.50;59.42;93107.34;5129014;28;20227;-75
2022/09/23 09:56:30;;;;;;;9.50;9.00;;;;;;;12.64;58.72;93118.72;5128213;28;21112;-76
2022/09/23 09:59:00;;;;;;;9.40;9.00;;;;;;;12.71;57.77;93117.38;5128533;28;20253;-75
2022/09/23 10:01:31;;;;;;;10.10;9.57;;;;;;;12.48;58.92;93106.88;5127299;28;20179;-76
2022/09/23 10:03:59;;;;;;;9.97;9.47;;;;;;;12.44;58.77;93109.25;5128454;28;20219;-75
2022/09/23 10:06:31;;;;;;;10.87;10.27;;;;;;;12.63;60.22;93104.06;5126337;28;20183;-75
2022/09/23 10:09:10;;;;;;;10.70;10.10;;;;;;;12.45;58.72;93116.03;5126900;28;20215;-75
2022/09/23 10:11:36;;;;;;;10.30;9.80;;;;;;;12.28;60.36;93113.06;5128568;28;20206;-76
2022/09/23 10:14:16;;;;;;;10.27;9.77;;;;;;;12.47;58.98;93103.47;5129174;28;20294;-75
2022/09/23 10:16:43;;;;;;;10.90;10.33;;;;;;;12.72;58.26;93102.41;5128008;28;20180;-76
2022/09/23 10:19:22;;;;;;;10.03;9.53;;;;;;;12.51;57.08;93108.94;5128484;28;20211;-75
2022/09/23 10:21:52;;;;;;;10.23;9.73;;;;;;;12.08;58.78;93100.16;5129103;28;20216;-75
2022/09/23 10:24:24;;;;;;;10.13;9.63;;;;;;;12.44;57.38;93098.78;5126482;28;20227;-75
2022/09/23 10:26:55;;;;;;;9.50;9.07;;;;;;;12.71;56.89;93100.84;5128600;28;20193;-76
2022/09/23 10:29:38;;;;;;;10.57;9.97;;;;;;;12.74;56.63;93097.69;5128953;28;20219;-75
2022/09/23 10:32:25;;;;;;;10.83;10.23;;;;;;;12.80;56.57;93091.31;5126885;28;20218;-76
2022/09/23 10:34:57;;;;;;;9.57;9.17;;;;;;;12.82;58.34;93094.44;5123538;28;20245;-75
2022/09/23 10:37:31;;;;;;;10.03;9.57;;;;;;;12.73;56.87;93101.38;5129377;28;20200;-76
2022/09/23 10:48:41;;;;;;;8.77;8.37;;;;;;;13.05;54.35;93087.63;5132258;28;20218;-76
2022/09/23 10:51:17;;;;;;;9.23;8.83;;;;;;;13.34;53.17;93102.19;5130930;28;20234;-75
2022/09/23 10:54:02;;;;;;;15.60;8.80;;;;;;;13.16;54.28;93075.97;5130151;28;20234;-74
2022/09/23 10:56:38;;;;;;;9.50;8.80;;;;;;;12.71;53.24;93091.16;5132242;28;20203;-75
2022/09/23 10:59:33;;;;;;;9.57;9.07;;;;;;;12.94;53.94;93092.19;5130880;28;20235;-75
2022/09/23 11:02:16;;;;;;;9.63;9.03;;;;;;;13.12;52.19;93090.72;5131674;28;20328;-75
2022/09/23 11:04:54;;;;;;;9.07;8.67;;;;;;;13.23;52.52;93089.50;5131374;27;20293;-76
2022/09/23 11:07:25;;;;;;;9.83;9.37;;;;;;;13.27;50.59;93091.28;5130801;28;20190;-76
2022/09/23 11:10:09;;;;;;;8.17;7.87;;;;;;;12.63;50.38;93083.13;5131539;28;20222;-76
2022/09/23 11:12:36;;;;;;;8.97;8.57;;;;;;;13.01;51.38;93082.19;5131591;28;20195;-75
2022/09/23 11:15:25;;;;;;;9.07;8.67;;;;;;;13.03;52.76;93080.06;5131699;28;20253;-75
2022/09/23 11:18:03;;;;;;;8.87;8.47;;;;;;;12.64;53.09;93071.56;5132576;27;20187;-75
2022/09/23 11:20:53;;;;;;;9.53;9.03;;;;;;;12.47;54.07;93076.47;5130361;28;20219;-76
2022/09/23 11:23:39;;;;;;;9.23;8.63;;;;;;;12.74;55.09;93061.00;5132067;28;20191;-76
2022/09/23 11:26:30;;;;;;;10.00;9.50;;;;;;;13.09;54.31;93071.06;5131497;28;20211;-75
2022/09/23 11:29:02;;;;;;;8.80;8.30;;;;;;;13.37;52.94;93075.41;5129973;27;20230;-75
2022/09/23 11:31:42;;;;;;;8.93;8.53;;;;;;;13.38;51.59;93071.72;5131707;28;20211;-76
2022/09/23 11:34:33;;;;;;;9.30;8.90;;;;;;;13.27;51.56;93078.19;5129536;28;20290;-76
2022/09/23 11:37:11;;;;;;;8.73;8.33;;;;;;;13.10;51.63;93075.25;5130860;28;20275;-76
2022/09/23 11:39:44;;;;;;;9.50;9.10;;;;;;;13.04;51.22;93063.28;5131235;28;20826;-76
2022/09/23 11:42:21;;;;;;;9.67;9.07;;;;;;;13.23;51.51;93050.94;5132487;28;20190;-76
2022/09/23 11:44:56;;;;;;;9.57;9.13;;;;;;;13.43;50.10;93066.38;5130842;27;20290;-76
2022/09/23 11:47:35;;;;;;;9.87;9.23;;;;;;;13.44;49.24;93064.56;5131405;28;20178;-76
2022/09/23 11:50:11;;;;;;;9.23;8.83;;;;;;;13.28;47.11;93061.38;5130240;27;20222;-75
2022/09/23 11:52:44;;;;;;;8.07;7.77;;;;;;;13.38;46.42;93042.09;5131876;28;20183;-75